createdAt,value
2022-11-25T00:00:46.730Z,91.51
2022-11-25T00:01:47.387Z,91.72
2022-11-25T00:02:46.697Z,91.93
2022-11-25T00:03:46.925Z,92.24
2022-11-25T00:04:46.736Z,92.34
2022-11-25T00:05:46.658Z,92.34
2022-11-25T00:06:46.550Z,92.34
2022-11-25T00:07:47.452Z,92.44
2022-11-25T00:08:47.279Z,92.55
2022-11-25T00:09:46.396Z,92.55
2022-11-25T00:10:46.877Z,92.65
2022-11-25T00:11:46.480Z,92.55
2022-11-25T00:12:46.438Z,92.55
2022-11-25T00:13:46.434Z,92.65
2022-11-25T00:14:46.493Z,93.48
2022-11-25T00:15:46.532Z,94.14
2022-11-25T00:16:48.717Z,94.45
2022-11-25T00:17:46.650Z,94.56
2022-11-25T00:18:46.341Z,94.31
2022-11-25T00:19:46.270Z,94.35
2022-11-25T00:20:47.330Z,94.24
2022-11-25T00:21:46.279Z,93.83
2022-11-25T00:22:46.432Z,93.68
2022-11-25T00:23:48.069Z,93.48
2022-11-25T00:24:46.225Z,93.37
2022-11-25T00:25:46.434Z,93.37
2022-11-25T00:26:46.279Z,93.16
2022-11-25T00:27:46.159Z,93.06
2022-11-25T00:28:46.163Z,92.76
2022-11-25T00:29:46.173Z,93.06
2022-11-25T00:30:46.378Z,93.58
2022-11-25T00:31:46.153Z,93.79
2022-11-25T00:32:46.113Z,93.89
2022-11-25T00:33:46.103Z,93.99
2022-11-25T00:34:46.101Z,94.87
2022-11-25T00:35:46.305Z,95.59
2022-11-25T00:36:46.057Z,96.11
2022-11-25T00:37:46.040Z,97.09
2022-11-25T00:38:46.049Z,97.39
2022-11-25T00:39:45.999Z,97.45
2022-11-25T00:40:46.031Z,97.45
2022-11-25T00:41:45.987Z,97.56
2022-11-25T00:42:46.001Z,97.56
2022-11-25T00:43:46.006Z,97.77
2022-11-25T00:44:45.958Z,97.77
2022-11-25T00:45:46.254Z,97.87
2022-11-25T00:46:45.934Z,97.97
2022-11-25T00:47:45.904Z,97.97
2022-11-25T00:48:45.919Z,97.97
2022-11-25T00:49:45.882Z,97.97
2022-11-25T00:50:46.362Z,97.97
2022-11-25T00:51:45.873Z,97.97
2022-11-25T00:52:45.852Z,98.08
2022-11-25T00:53:45.831Z,98.18
2022-11-25T00:54:45.878Z,98.28
2022-11-25T00:55:46.605Z,98.39
2022-11-25T00:56:45.819Z,98.28
2022-11-25T00:57:45.802Z,98.18
2022-11-25T00:58:45.788Z,98.08
2022-11-25T00:59:45.759Z,98.08
2022-11-25T01:00:46.108Z,98.18
2022-11-25T01:01:45.786Z,98.18
2022-11-25T01:02:45.787Z,98.08
2022-11-25T01:03:45.696Z,97.72
2022-11-25T01:04:45.718Z,97.87
2022-11-25T01:05:46.496Z,98.08
2022-11-25T01:06:45.746Z,98.08
2022-11-25T01:07:45.687Z,98.49
2022-11-25T01:08:45.672Z,98.80
2022-11-25T01:09:45.672Z,98.91
2022-11-25T01:10:45.862Z,98.80
2022-11-25T01:11:45.644Z,98.91
2022-11-25T01:12:45.620Z,99.01
2022-11-25T01:13:45.570Z,99.11
2022-11-25T01:14:45.601Z,99.11
2022-11-25T01:15:45.749Z,99.01
2022-11-25T01:16:45.615Z,98.80
2022-11-25T01:17:45.524Z,98.55
2022-11-25T01:18:45.557Z,98.39
2022-11-25T01:19:45.688Z,98.24
2022-11-25T01:20:45.518Z,98.03
2022-11-25T01:21:45.484Z,97.93
2022-11-25T01:22:45.483Z,97.72
2022-11-25T01:23:45.460Z,97.87
2022-11-25T01:24:45.474Z,98.08
2022-11-25T01:25:45.623Z,98.18
2022-11-25T01:26:45.424Z,98.28
2022-11-25T01:27:45.411Z,98.18
2022-11-25T01:28:45.391Z,98.28
2022-11-25T01:29:45.387Z,98.49
2022-11-25T01:30:45.581Z,98.49
2022-11-25T01:31:45.398Z,98.49
2022-11-25T01:32:45.360Z,98.60
2022-11-25T01:33:45.397Z,98.49
2022-11-25T01:34:45.308Z,98.28
2022-11-25T01:35:45.519Z,98.13
2022-11-25T01:36:45.302Z,98.03
2022-11-25T01:37:45.257Z,97.72
2022-11-25T01:38:45.275Z,97.52
2022-11-25T01:39:45.243Z,97.20
2022-11-25T01:40:45.446Z,97.10
2022-11-25T01:41:45.204Z,97.00
2022-11-25T01:42:45.241Z,97.00
2022-11-25T01:43:45.195Z,97.10
2022-11-25T01:44:45.203Z,97.00
2022-11-25T01:45:45.431Z,96.89
2022-11-25T01:46:45.190Z,96.79
2022-11-25T01:47:45.142Z,96.58
2022-11-25T01:48:45.161Z,96.48
2022-11-25T01:49:45.109Z,96.27
2022-11-25T01:50:45.110Z,96.37
2022-11-25T01:51:45.279Z,96.37
2022-11-25T01:52:45.103Z,96.17
2022-11-25T01:53:45.062Z,96.27
2022-11-25T01:54:45.078Z,96.48
2022-11-25T01:55:45.026Z,96.48
2022-11-25T01:56:45.236Z,96.48
2022-11-25T01:57:45.017Z,96.37
2022-11-25T01:58:45.015Z,96.17
2022-11-25T01:59:45.004Z,96.17
2022-11-25T02:00:45.041Z,96.17
2022-11-25T02:01:45.183Z,96.17
2022-11-25T02:02:45.074Z,95.96
2022-11-25T02:03:44.940Z,95.61
2022-11-25T02:04:44.951Z,95.40
2022-11-25T02:05:44.902Z,95.19
2022-11-25T02:06:45.122Z,95.09
2022-11-25T02:07:44.896Z,94.98
2022-11-25T02:08:44.908Z,94.68
2022-11-25T02:09:44.849Z,94.57
2022-11-25T02:10:44.839Z,94.57
2022-11-25T02:11:45.038Z,94.47
2022-11-25T02:12:44.816Z,94.57
2022-11-25T02:13:44.827Z,94.47
2022-11-25T02:14:44.794Z,94.47
2022-11-25T02:15:44.801Z,94.37
2022-11-25T02:16:44.792Z,94.16
2022-11-25T02:17:44.987Z,94.16
2022-11-25T02:18:44.745Z,94.16
2022-11-25T02:19:44.760Z,94.16
2022-11-25T02:20:44.713Z,94.06
2022-11-25T02:21:44.733Z,94.06
2022-11-25T02:22:44.882Z,94.06
2022-11-25T02:23:44.721Z,94.06
2022-11-25T02:24:44.659Z,94.06
2022-11-25T02:25:44.673Z,94.06
2022-11-25T02:26:44.653Z,93.95
2022-11-25T02:27:44.839Z,93.74
2022-11-25T02:28:44.610Z,93.64
2022-11-25T02:29:44.612Z,93.74
2022-11-25T02:30:44.589Z,93.74
2022-11-25T02:31:44.652Z,93.74
2022-11-25T02:32:44.627Z,93.74
2022-11-25T02:33:44.586Z,93.74
2022-11-25T02:34:44.586Z,93.85
2022-11-25T02:35:44.572Z,93.74
2022-11-25T02:36:44.509Z,93.64
2022-11-25T02:37:44.715Z,93.64
2022-11-25T02:38:44.483Z,93.54
2022-11-25T02:39:44.503Z,93.64
2022-11-25T02:40:44.456Z,93.54
2022-11-25T02:41:44.486Z,93.54
2022-11-25T02:42:44.639Z,93.64
2022-11-25T02:43:44.434Z,93.64
2022-11-25T02:44:44.408Z,93.74
2022-11-25T02:45:44.585Z,93.95
2022-11-25T02:46:44.381Z,94.16
2022-11-25T02:47:44.609Z,94.16
2022-11-25T02:49:07.923Z,94.16
2022-11-25T02:49:45.366Z,94.16
2022-11-25T02:51:05.370Z,94.16
2022-11-25T02:51:44.320Z,94.26
2022-11-25T02:52:44.708Z,94.37
2022-11-25T02:53:44.293Z,94.26
2022-11-25T02:54:44.330Z,94.06
2022-11-25T02:55:44.274Z,94.06
2022-11-25T02:56:44.516Z,94.06
2022-11-25T02:57:44.245Z,94.10
2022-11-25T02:58:44.253Z,94.16
2022-11-25T02:59:44.221Z,94.16
2022-11-25T03:00:44.298Z,94.06
2022-11-25T03:01:44.565Z,94.06
2022-11-25T03:02:44.449Z,94.06
2022-11-25T03:03:44.169Z,94.16
2022-11-25T03:04:44.184Z,94.16
2022-11-25T03:05:44.141Z,94.26
2022-11-25T03:06:44.509Z,94.37
2022-11-25T03:07:44.457Z,94.37
2022-11-25T03:08:44.117Z,94.37
2022-11-25T03:09:44.096Z,94.37
2022-11-25T03:10:44.362Z,94.37
2022-11-25T03:11:44.061Z,94.37
2022-11-25T03:12:44.299Z,94.37
2022-11-25T03:13:44.085Z,94.26
2022-11-25T03:14:44.045Z,94.26
2022-11-25T03:15:51.086Z,94.26
2022-11-25T03:16:44.173Z,94.26
2022-11-25T03:17:44.189Z,94.26
2022-11-25T03:18:44.013Z,94.37
2022-11-25T03:19:43.985Z,94.16
2022-11-25T03:20:43.993Z,94.06
2022-11-25T03:21:43.947Z,94.16
2022-11-25T03:22:44.140Z,94.16
2022-11-25T03:23:43.917Z,94.26
2022-11-25T03:24:43.914Z,94.26
2022-11-25T03:25:43.890Z,94.37
2022-11-25T03:26:43.904Z,94.26
2022-11-25T03:27:44.073Z,94.26
2022-11-25T03:28:43.873Z,94.26
2022-11-25T03:29:43.832Z,94.16
2022-11-25T03:30:43.854Z,94.16
2022-11-25T03:31:43.903Z,94.16
2022-11-25T03:32:44.051Z,94.26
2022-11-25T03:33:43.780Z,94.26
2022-11-25T03:34:43.800Z,94.26
2022-11-25T03:35:43.768Z,94.16
2022-11-25T03:36:43.839Z,94.16
2022-11-25T03:37:43.937Z,94.26
2022-11-25T03:38:43.739Z,94.16
2022-11-25T03:39:43.719Z,94.16
2022-11-25T03:40:43.714Z,94.16
2022-11-25T03:41:43.886Z,94.06
2022-11-25T03:42:43.703Z,94.06
2022-11-25T03:43:43.663Z,94.06
2022-11-25T03:44:43.661Z,94.06
2022-11-25T03:45:43.682Z,94.06
2022-11-25T03:46:43.653Z,94.06
2022-11-25T03:47:43.803Z,93.95
2022-11-25T03:48:43.628Z,94.06
2022-11-25T03:49:43.601Z,93.95
2022-11-25T03:50:43.602Z,94.06
2022-11-25T03:51:43.555Z,94.06
2022-11-25T03:52:43.753Z,94.06
2022-11-25T03:53:43.530Z,94.06
2022-11-25T03:54:43.550Z,93.95
2022-11-25T03:55:43.539Z,93.85
2022-11-25T03:56:43.508Z,93.95
2022-11-25T03:57:43.687Z,93.85
2022-11-25T03:58:43.498Z,93.95
2022-11-25T03:59:43.457Z,93.95
2022-11-25T04:00:43.486Z,93.95
2022-11-25T04:01:44.566Z,94.06
2022-11-25T04:02:43.691Z,94.16
2022-11-25T04:03:43.414Z,94.16
2022-11-25T04:04:43.435Z,94.26
2022-11-25T04:05:43.396Z,94.47
2022-11-25T04:06:43.405Z,94.51
2022-11-25T04:07:43.579Z,94.62
2022-11-25T04:08:43.361Z,94.62
2022-11-25T04:09:43.329Z,94.72
2022-11-25T04:10:43.347Z,94.82
2022-11-25T04:11:43.300Z,94.93
2022-11-25T04:12:43.539Z,94.93
2022-11-25T04:13:43.279Z,95.03
2022-11-25T04:14:43.299Z,95.14
2022-11-25T04:15:43.288Z,95.24
2022-11-25T04:16:43.388Z,95.34
2022-11-25T04:17:43.236Z,95.34
2022-11-25T04:18:43.457Z,95.34
2022-11-25T04:19:43.204Z,95.44
2022-11-25T04:20:43.217Z,95.54
2022-11-25T04:21:45.841Z,95.44
2022-11-25T04:22:44.211Z,95.34
2022-11-25T04:23:43.354Z,95.19
2022-11-25T04:24:43.171Z,95.09
2022-11-25T04:25:43.133Z,94.98
2022-11-25T04:26:43.133Z,94.89
2022-11-25T04:27:43.110Z,94.78
2022-11-25T04:28:43.330Z,94.78
2022-11-25T04:29:43.078Z,94.78
2022-11-25T04:30:43.129Z,94.78
2022-11-25T04:31:43.059Z,94.82
2022-11-25T04:32:43.049Z,94.82
2022-11-25T04:33:43.887Z,94.82
2022-11-25T04:34:43.046Z,94.93
2022-11-25T04:35:43.016Z,95.03
2022-11-25T04:36:43.017Z,95.24
2022-11-25T04:37:43.169Z,95.24
2022-11-25T04:38:42.975Z,95.24
2022-11-25T04:39:42.944Z,95.24
2022-11-25T04:40:42.965Z,95.14
2022-11-25T04:41:42.921Z,95.14
2022-11-25T04:42:43.114Z,95.34
2022-11-25T04:43:42.894Z,95.44
2022-11-25T04:44:51.953Z,95.44
2022-11-25T04:46:06.797Z,95.44
2022-11-25T04:46:43.940Z,95.34
2022-11-25T04:47:43.104Z,95.24
2022-11-25T04:48:42.861Z,95.03
2022-11-25T04:49:42.820Z,94.93
2022-11-25T04:50:42.830Z,94.78
2022-11-25T04:51:42.796Z,94.68
2022-11-25T04:52:42.825Z,94.57
2022-11-25T04:53:42.967Z,94.57
2022-11-25T04:54:42.796Z,94.57
2022-11-25T04:55:42.777Z,94.57
2022-11-25T04:56:42.766Z,94.37
2022-11-25T04:57:42.742Z,94.37
2022-11-25T04:58:42.927Z,94.47
2022-11-25T04:59:42.705Z,94.57
2022-11-25T05:00:42.718Z,94.68
2022-11-25T05:01:42.719Z,94.89
2022-11-25T05:02:42.721Z,94.98
2022-11-25T05:03:48.782Z,94.98
2022-11-25T05:04:43.665Z,94.98
2022-11-25T05:05:42.612Z,94.98
2022-11-25T05:06:42.621Z,94.89
2022-11-25T05:07:42.621Z,94.89
2022-11-25T05:08:42.802Z,94.98
2022-11-25T05:09:42.573Z,95.09
2022-11-25T05:10:42.594Z,95.29
2022-11-25T05:11:42.550Z,95.40
2022-11-25T05:12:42.780Z,95.40
2022-11-25T05:13:42.532Z,95.29
2022-11-25T05:14:42.537Z,95.19
2022-11-25T05:15:42.507Z,95.09
2022-11-25T05:16:42.541Z,95.09
2022-11-25T05:17:42.663Z,94.98
2022-11-25T05:18:42.465Z,94.78
2022-11-25T05:19:42.434Z,94.57
2022-11-25T05:20:42.453Z,94.57
2022-11-25T05:21:42.413Z,94.57
2022-11-25T05:22:42.442Z,94.57
2022-11-25T05:23:42.392Z,94.57
2022-11-25T05:24:42.392Z,94.68
2022-11-25T05:25:42.361Z,94.78
2022-11-25T05:26:42.361Z,94.98
2022-11-25T05:27:42.369Z,95.09
2022-11-25T05:28:42.349Z,95.09
2022-11-25T05:29:42.310Z,95.09
2022-11-25T05:30:42.367Z,94.98
2022-11-25T05:31:42.278Z,95.09
2022-11-25T05:32:42.487Z,95.19
2022-11-25T05:33:42.274Z,95.09
2022-11-25T05:34:42.276Z,95.09
2022-11-25T05:35:42.233Z,95.09
2022-11-25T05:36:42.253Z,95.09
2022-11-25T05:37:42.401Z,95.09
2022-11-25T05:38:42.224Z,95.19
2022-11-25T05:39:42.183Z,95.19
2022-11-25T05:40:42.203Z,95.19
2022-11-25T05:41:42.153Z,95.09
2022-11-25T05:42:42.363Z,95.09
2022-11-25T05:43:42.136Z,94.98
2022-11-25T05:44:42.151Z,94.89
2022-11-25T05:45:42.158Z,94.89
2022-11-25T05:46:42.109Z,94.98
2022-11-25T05:47:42.290Z,95.09
2022-11-25T05:48:42.089Z,95.29
2022-11-25T05:49:42.077Z,95.19
2022-11-25T05:50:42.079Z,95.09
2022-11-25T05:51:42.026Z,95.09
2022-11-25T05:52:42.268Z,95.09
2022-11-25T05:53:42.005Z,95.09
2022-11-25T05:54:42.023Z,95.19
2022-11-25T05:55:41.985Z,95.09
2022-11-25T05:56:42.001Z,95.09
2022-11-25T05:57:42.145Z,95.24
2022-11-25T05:58:41.962Z,95.40
2022-11-25T05:59:41.933Z,95.40
2022-11-25T06:00:41.933Z,95.34
2022-11-25T06:01:41.901Z,95.14
2022-11-25T06:02:42.249Z,95.14
2022-11-25T06:03:41.962Z,95.34
2022-11-25T06:04:41.899Z,95.54
2022-11-25T06:05:41.858Z,95.65
2022-11-25T06:06:41.879Z,95.75
2022-11-25T06:07:42.051Z,95.75
2022-11-25T06:08:41.846Z,95.86
2022-11-25T06:09:41.807Z,95.96
2022-11-25T06:10:41.922Z,96.06
2022-11-25T06:11:41.794Z,96.17
2022-11-25T06:12:41.819Z,96.37
2022-11-25T06:13:41.766Z,96.48
2022-11-25T06:14:41.734Z,96.58
2022-11-25T06:15:41.858Z,96.69
2022-11-25T06:16:41.703Z,96.58
2022-11-25T06:17:41.852Z,96.48
2022-11-25T06:18:41.702Z,96.27
2022-11-25T06:19:41.672Z,96.06
2022-11-25T06:20:41.640Z,95.96
2022-11-25T06:21:41.610Z,95.81
2022-11-25T06:22:41.869Z,95.81
2022-11-25T06:23:41.620Z,95.71
2022-11-25T06:24:42.340Z,95.50
2022-11-25T06:25:41.825Z,95.50
2022-11-25T06:26:41.595Z,95.50
2022-11-25T06:28:10.741Z,95.29
2022-11-25T06:28:42.513Z,95.09
2022-11-25T06:29:42.266Z,95.09
2022-11-25T06:30:41.485Z,94.98
2022-11-25T06:31:41.552Z,94.89
2022-11-25T06:32:41.653Z,94.98
2022-11-25T06:33:41.484Z,95.03
2022-11-25T06:34:42.244Z,95.09
2022-11-25T06:35:41.453Z,95.09
2022-11-25T06:36:41.404Z,95.09
2022-11-25T06:37:41.623Z,94.98
2022-11-25T06:38:41.385Z,95.03
2022-11-25T06:39:42.157Z,94.93
2022-11-25T06:40:41.370Z,95.03
2022-11-25T06:41:41.359Z,95.03
2022-11-25T06:42:41.548Z,95.03
2022-11-25T06:43:41.329Z,95.14
2022-11-25T06:44:41.345Z,95.34
2022-11-25T06:45:41.336Z,95.44
2022-11-25T06:46:41.311Z,95.44
2022-11-25T06:47:41.467Z,95.54
2022-11-25T06:48:41.257Z,95.44
2022-11-25T06:49:41.256Z,95.34
2022-11-25T06:50:41.274Z,95.44
2022-11-25T06:51:41.235Z,95.54
2022-11-25T06:52:41.414Z,95.54
2022-11-25T06:53:41.203Z,95.54
2022-11-25T06:54:41.176Z,95.44
2022-11-25T06:55:41.173Z,95.24
2022-11-25T06:56:41.163Z,95.14
2022-11-25T06:57:41.179Z,95.09
2022-11-25T06:58:41.329Z,95.03
2022-11-25T06:59:41.141Z,95.03
2022-11-25T07:00:41.097Z,95.14
2022-11-25T07:01:41.137Z,95.34
2022-11-25T07:02:46.630Z,95.44
2022-11-25T07:03:42.288Z,95.54
2022-11-25T07:04:41.047Z,95.65
2022-11-25T07:05:41.067Z,95.65
2022-11-25T07:06:41.033Z,95.54
2022-11-25T07:07:41.083Z,95.54
2022-11-25T07:08:41.204Z,95.40
2022-11-25T07:09:41.016Z,95.24
2022-11-25T07:10:40.987Z,95.24
2022-11-25T07:11:41.013Z,95.24
2022-11-25T07:12:40.955Z,95.24
2022-11-25T07:13:41.164Z,95.24
2022-11-25T07:14:40.943Z,95.34
2022-11-25T07:15:40.964Z,95.65
2022-11-25T07:16:43.525Z,95.96
2022-11-25T07:17:40.911Z,96.06
2022-11-25T07:18:41.098Z,96.06
2022-11-25T07:19:40.870Z,96.06
2022-11-25T07:20:40.846Z,95.96
2022-11-25T07:21:40.865Z,95.75
2022-11-25T07:22:41.011Z,95.86
2022-11-25T07:23:40.839Z,96.17
2022-11-25T07:24:40.812Z,96.27
2022-11-25T07:25:40.796Z,96.27
2022-11-25T07:26:40.773Z,96.27
2022-11-25T07:27:40.986Z,96.27
2022-11-25T07:28:40.747Z,96.27
2022-11-25T07:30:19.119Z,95.81
2022-11-25T07:31:22.350Z,95.50
2022-11-25T07:31:41.754Z,95.40
2022-11-25T07:32:40.891Z,95.54
2022-11-25T07:33:40.757Z,95.65
2022-11-25T07:34:40.669Z,95.86
2022-11-25T07:35:40.682Z,96.06
2022-11-25T07:36:40.642Z,96.06
2022-11-25T07:37:40.882Z,96.06
2022-11-25T07:38:45.150Z,96.02
2022-11-25T07:39:41.670Z,96.12
2022-11-25T07:40:40.592Z,96.02
2022-11-25T07:41:40.626Z,95.81
2022-11-25T07:42:40.768Z,95.71
2022-11-25T07:43:40.585Z,95.71
2022-11-25T07:44:40.537Z,95.92
2022-11-25T07:45:40.546Z,95.92
2022-11-25T07:46:40.563Z,96.12
2022-11-25T07:47:40.728Z,96.12
2022-11-25T07:48:40.493Z,96.02
2022-11-25T07:49:40.493Z,96.12
2022-11-25T07:50:40.473Z,96.44
2022-11-25T07:51:40.482Z,96.39
2022-11-25T07:52:40.633Z,96.49
2022-11-25T07:53:40.474Z,96.49
2022-11-25T07:54:40.412Z,96.29
2022-11-25T07:55:40.424Z,96.14
2022-11-25T07:56:40.412Z,95.73
2022-11-25T07:57:40.409Z,95.21
2022-11-25T07:58:45.726Z,95.10
2022-11-25T07:59:41.370Z,95.10
2022-11-25T08:00:40.339Z,95.31
2022-11-25T08:01:40.444Z,95.21
2022-11-25T08:02:40.356Z,95.21
2022-11-25T08:03:40.527Z,95.31
2022-11-25T08:04:40.287Z,95.10
2022-11-25T08:05:40.316Z,95.10
2022-11-25T08:06:40.289Z,95.10
2022-11-25T08:07:40.356Z,95.10
2022-11-25T08:08:40.441Z,95.10
2022-11-25T08:09:40.254Z,95.21
2022-11-25T08:10:40.212Z,95.52
2022-11-25T08:11:40.234Z,95.73
2022-11-25T08:12:40.195Z,95.73
2022-11-25T08:13:40.413Z,95.83
2022-11-25T08:14:40.165Z,95.83
2022-11-25T08:15:40.195Z,95.73
2022-11-25T08:16:40.140Z,95.83
2022-11-25T08:17:40.151Z,95.83
2022-11-25T08:18:40.313Z,95.83
2022-11-25T08:19:40.150Z,95.73
2022-11-25T08:20:40.086Z,95.73
2022-11-25T08:21:40.099Z,95.57
2022-11-25T08:22:40.065Z,95.48
2022-11-25T08:23:40.298Z,95.37
2022-11-25T08:24:40.044Z,95.27
2022-11-25T08:25:40.048Z,95.37
2022-11-25T08:26:40.011Z,95.48
2022-11-25T08:27:40.087Z,95.48
2022-11-25T08:28:40.184Z,95.57
2022-11-25T08:29:40.004Z,95.57
2022-11-25T08:30:39.952Z,95.68
2022-11-25T08:31:40.034Z,95.78
2022-11-25T08:32:39.939Z,95.48
2022-11-25T08:33:40.157Z,95.22
2022-11-25T08:34:39.908Z,94.92
2022-11-25T08:35:39.900Z,94.92
2022-11-25T08:36:43.804Z,94.92
2022-11-25T08:37:40.911Z,94.81
2022-11-25T08:38:40.074Z,94.71
2022-11-25T08:39:55.668Z,94.96
2022-11-25T08:40:40.830Z,95.48
2022-11-25T08:41:39.828Z,95.78
2022-11-25T08:42:39.823Z,95.89
2022-11-25T08:43:40.030Z,96.45
2022-11-25T08:44:39.777Z,96.86
2022-11-25T08:45:39.785Z,96.97
2022-11-25T08:46:39.759Z,96.82
2022-11-25T08:47:39.809Z,96.61
2022-11-25T08:48:39.733Z,96.41
2022-11-25T08:49:41.501Z,96.15
2022-11-25T08:50:39.692Z,95.95
2022-11-25T08:51:39.711Z,95.74
2022-11-25T08:52:39.670Z,95.43
2022-11-25T08:53:39.687Z,95.22
2022-11-25T08:54:39.836Z,94.97
2022-11-25T08:55:39.639Z,94.77
2022-11-25T08:56:39.610Z,94.67
2022-11-25T08:57:39.664Z,94.67
2022-11-25T08:58:39.606Z,94.46
2022-11-25T08:59:40.091Z,94.42
2022-11-25T09:00:39.566Z,94.21
2022-11-25T09:01:39.635Z,93.90
2022-11-25T09:02:39.571Z,93.69
2022-11-25T09:03:39.566Z,93.59
2022-11-25T09:04:39.754Z,93.59
2022-11-25T09:05:39.527Z,93.34
2022-11-25T09:06:39.484Z,93.13
2022-11-25T09:07:39.603Z,93.03
2022-11-25T09:08:39.501Z,92.93
2022-11-25T09:09:39.990Z,92.76
2022-11-25T09:10:39.432Z,93.49
2022-11-25T09:11:39.495Z,93.90
2022-11-25T09:12:39.419Z,94.00
2022-11-25T09:13:39.494Z,94.10
2022-11-25T09:14:39.589Z,94.00
2022-11-25T09:15:39.447Z,93.85
2022-11-25T09:16:46.414Z,93.65
2022-11-25T09:17:39.382Z,93.54
2022-11-25T09:18:39.325Z,93.65
2022-11-25T09:19:39.544Z,93.75
2022-11-25T09:20:39.361Z,93.65
2022-11-25T09:21:39.311Z,93.65
2022-11-25T09:22:39.320Z,93.65
2022-11-25T09:23:39.479Z,93.75
2022-11-25T09:24:39.260Z,93.85
2022-11-25T09:25:39.384Z,93.85
2022-11-25T09:26:39.221Z,93.75
2022-11-25T09:27:39.258Z,93.65
2022-11-25T09:28:39.196Z,93.54
2022-11-25T09:29:39.701Z,93.44
2022-11-25T09:30:40.154Z,93.44
2022-11-25T09:31:39.243Z,93.65
2022-11-25T09:32:39.157Z,93.75
2022-11-25T09:33:39.359Z,93.75
2022-11-25T09:34:39.344Z,93.75
2022-11-25T09:35:39.166Z,93.44
2022-11-25T09:36:39.094Z,93.75
2022-11-25T09:37:39.102Z,93.85
2022-11-25T09:38:43.154Z,93.75
2022-11-25T09:39:39.462Z,93.50
2022-11-25T09:40:39.063Z,93.19
2022-11-25T09:41:39.071Z,92.99
2022-11-25T09:42:39.093Z,92.68
2022-11-25T09:43:39.243Z,92.57
2022-11-25T09:44:39.110Z,92.43
2022-11-25T09:45:39.022Z,92.22
2022-11-25T09:46:39.043Z,92.12
2022-11-25T09:47:43.555Z,92.02
2022-11-25T09:48:40.136Z,91.71
2022-11-25T09:49:39.280Z,91.60
2022-11-25T09:50:38.928Z,91.60
2022-11-25T09:51:38.949Z,91.60
2022-11-25T09:52:38.924Z,91.81
2022-11-25T09:53:38.886Z,91.81
2022-11-25T09:54:39.634Z,91.60
2022-11-25T09:55:39.384Z,91.91
2022-11-25T09:56:38.832Z,92.22
2022-11-25T09:57:38.868Z,92.33
2022-11-25T09:58:39.033Z,92.43
2022-11-25T09:59:39.137Z,92.53
2022-11-25T10:00:38.906Z,92.63
2022-11-25T10:01:38.836Z,92.74
2022-11-25T10:02:38.929Z,92.59
2022-11-25T10:03:39.604Z,92.38
2022-11-25T10:04:38.819Z,92.08
2022-11-25T10:05:38.751Z,92.08
2022-11-25T10:06:38.782Z,91.97
2022-11-25T10:07:38.728Z,91.97
2022-11-25T10:08:38.686Z,91.87
2022-11-25T10:09:39.673Z,91.97
2022-11-25T10:10:38.666Z,92.18
2022-11-25T10:11:38.673Z,91.97
2022-11-25T10:12:38.657Z,91.97
2022-11-25T10:13:38.645Z,92.38
2022-11-25T10:14:38.802Z,92.49
2022-11-25T10:15:38.677Z,92.29
2022-11-25T10:16:38.665Z,92.38
2022-11-25T10:17:38.574Z,92.63
2022-11-25T10:18:38.581Z,92.84
2022-11-25T10:19:39.314Z,92.94
2022-11-25T10:20:38.523Z,93.05
2022-11-25T10:21:38.551Z,93.15
2022-11-25T10:22:38.530Z,93.15
2022-11-25T10:23:38.553Z,93.25
2022-11-25T10:24:41.332Z,93.35
2022-11-25T10:25:38.521Z,93.25
2022-11-25T10:26:38.448Z,92.94
2022-11-25T10:27:38.514Z,92.84
2022-11-25T10:28:39.199Z,92.94
2022-11-25T10:29:38.673Z,92.90
2022-11-25T10:30:39.367Z,92.90
2022-11-25T10:31:38.472Z,92.38
2022-11-25T10:32:38.416Z,92.18
2022-11-25T10:33:38.384Z,92.08
2022-11-25T10:34:38.840Z,92.18
2022-11-25T10:35:38.374Z,92.18
2022-11-25T10:36:38.331Z,91.97
2022-11-25T10:37:38.301Z,92.18
2022-11-25T10:38:38.326Z,92.18
2022-11-25T10:39:38.483Z,92.18
2022-11-25T10:40:38.314Z,92.18
2022-11-25T10:41:38.320Z,92.08
2022-11-25T10:42:38.338Z,92.08
2022-11-25T10:43:38.260Z,92.08
2022-11-25T10:44:38.734Z,91.97
2022-11-25T10:45:38.266Z,91.83
2022-11-25T10:47:11.635Z,91.72
2022-11-25T10:47:39.357Z,91.21
2022-11-25T10:48:44.024Z,91.00
2022-11-25T10:49:39.247Z,90.80
2022-11-25T10:50:38.254Z,90.80
2022-11-25T10:51:38.178Z,90.90
2022-11-25T10:52:38.128Z,90.90
2022-11-25T10:53:38.296Z,90.69
2022-11-25T10:54:38.115Z,90.59
2022-11-25T10:55:38.072Z,90.45
2022-11-25T10:56:38.084Z,90.24
2022-11-25T10:57:38.047Z,90.14
2022-11-25T10:58:38.060Z,90.03
2022-11-25T10:59:38.423Z,90.14
2022-11-25T11:00:38.067Z,90.24
2022-11-25T11:01:38.077Z,90.24
2022-11-25T11:02:38.069Z,90.24
2022-11-25T11:03:37.971Z,90.24
2022-11-25T11:04:38.430Z,90.03
2022-11-25T11:05:41.258Z,89.73
2022-11-25T11:06:39.686Z,89.83
2022-11-25T11:07:38.125Z,90.03
2022-11-25T11:08:37.982Z,89.73
2022-11-25T11:09:38.727Z,89.48
2022-11-25T11:10:37.895Z,89.38
2022-11-25T11:11:37.865Z,89.48
2022-11-25T11:12:37.865Z,89.48
2022-11-25T11:13:37.984Z,89.48
2022-11-25T11:14:38.522Z,89.38
2022-11-25T11:15:37.873Z,89.38
2022-11-25T11:16:37.888Z,89.28
2022-11-25T11:17:37.841Z,89.34
2022-11-25T11:18:37.800Z,89.03
2022-11-25T11:19:37.970Z,88.62
2022-11-25T11:20:37.761Z,88.10
2022-11-25T11:21:37.734Z,87.90
2022-11-25T11:22:37.761Z,87.90
2022-11-25T11:23:38.458Z,87.69
2022-11-25T11:24:38.345Z,87.49
2022-11-25T11:25:37.678Z,87.18
2022-11-25T11:26:37.678Z,87.07
2022-11-25T11:27:37.661Z,86.97
2022-11-25T11:28:37.667Z,87.07
2022-11-25T11:29:37.878Z,87.38
2022-11-25T11:30:37.666Z,87.38
2022-11-25T11:31:37.684Z,87.18
2022-11-25T11:32:37.675Z,87.18
2022-11-25T11:33:37.575Z,87.18
2022-11-25T11:34:38.111Z,86.97
2022-11-25T11:35:41.655Z,86.66
2022-11-25T11:36:37.556Z,86.62
2022-11-25T11:37:37.522Z,86.62
2022-11-25T11:38:37.550Z,86.42
2022-11-25T11:39:37.702Z,86.83
2022-11-25T11:40:37.538Z,87.04
2022-11-25T11:41:37.482Z,87.04
2022-11-25T11:42:37.495Z,86.68
2022-11-25T11:43:37.703Z,86.68
2022-11-25T11:44:38.300Z,86.38
2022-11-25T11:45:37.464Z,86.38
2022-11-25T11:46:37.513Z,85.86
2022-11-25T11:47:37.410Z,84.94
2022-11-25T11:48:37.657Z,84.63
2022-11-25T11:49:37.378Z,84.74
2022-11-25T11:50:37.377Z,84.84
2022-11-25T11:51:37.351Z,84.22
2022-11-25T11:52:37.375Z,83.91
2022-11-25T11:53:37.345Z,84.12
2022-11-25T11:54:37.764Z,84.32
2022-11-25T11:55:38.226Z,84.32
2022-11-25T11:56:37.314Z,84.32
2022-11-25T11:57:37.282Z,84.39
2022-11-25T11:58:37.483Z,85.00
2022-11-25T11:59:37.272Z,84.80
2022-11-25T12:00:37.270Z,84.69
2022-11-25T12:01:37.282Z,84.59
2022-11-25T12:02:37.221Z,84.08
2022-11-25T12:03:37.286Z,84.34
2022-11-25T12:04:37.630Z,83.94
2022-11-25T12:05:37.173Z,82.60
2022-11-25T12:06:37.208Z,81.37
2022-11-25T12:07:37.229Z,80.65
2022-11-25T12:08:37.245Z,80.45
2022-11-25T12:09:37.320Z,80.86
2022-11-25T12:10:37.156Z,81.27
2022-11-25T12:11:37.117Z,82.29
2022-11-25T12:12:37.086Z,81.37
2022-11-25T12:13:37.068Z,81.48
2022-11-25T12:14:37.577Z,82.13
2022-11-25T12:15:37.993Z,81.82
2022-11-25T12:16:37.078Z,81.71
2022-11-25T12:17:37.017Z,82.03
2022-11-25T12:18:37.029Z,82.64
2022-11-25T12:19:37.183Z,82.13
2022-11-25T12:20:37.012Z,81.71
2022-11-25T12:21:41.649Z,81.82
2022-11-25T12:22:37.964Z,81.82
2022-11-25T12:23:36.972Z,82.03
2022-11-25T12:24:37.379Z,81.92
2022-11-25T12:25:36.920Z,81.92
2022-11-25T12:26:36.909Z,82.43
2022-11-25T12:27:36.935Z,82.03
2022-11-25T12:28:36.902Z,82.13
2022-11-25T12:29:37.079Z,81.92
2022-11-25T12:30:36.864Z,82.23
2022-11-25T12:31:36.901Z,82.40
2022-11-25T12:32:36.861Z,81.88
2022-11-25T12:33:36.807Z,81.68
2022-11-25T12:34:37.495Z,81.57
2022-11-25T12:35:36.844Z,81.48
2022-11-25T12:36:36.794Z,81.99
2022-11-25T12:37:36.754Z,81.88
2022-11-25T12:38:36.765Z,81.88
2022-11-25T12:39:36.931Z,81.99
2022-11-25T12:40:36.759Z,82.09
2022-11-25T12:41:36.702Z,82.23
2022-11-25T12:42:36.723Z,82.54
2022-11-25T12:43:36.680Z,82.23
2022-11-25T12:44:37.234Z,82.68
2022-11-25T12:45:36.750Z,82.84
2022-11-25T12:46:36.683Z,82.33
2022-11-25T12:47:36.641Z,82.37
2022-11-25T12:48:36.645Z,82.43
2022-11-25T12:49:36.815Z,82.78
2022-11-25T12:50:36.638Z,82.68
2022-11-25T12:51:36.577Z,82.27
2022-11-25T12:52:36.576Z,82.78